Time;durP1;ratioP1;P1;durP2;ratioP2;P2;SDS_P1;SDS_P2;PMS_P1;PMS_P2;Temp;Humidity;BMP_temperature;BMP_pressure;BME280_temperature;BME280_humidity;BME280_pressure;Samples;Min_cycle;Max_cycle;Signal;HPM_P1;HPM_P2
2023/10/20 00:01:16;;;;;;;11.90;9.73;;;13.30;99.90;;;;;;5036539;28;20266;-76
2023/10/20 00:03:42;;;;;;;11.48;9.10;;;13.30;99.90;;;;;;5017667;28;20241;-77
2023/10/20 00:06:08;;;;;;;13.00;9.50;;;13.30;99.90;;;;;;5035258;28;20229;-76
2023/10/20 00:08:34;;;;;;;12.05;9.95;;;13.30;99.90;;;;;;5017398;28;20645;-77
2023/10/20 00:11:07;;;;;;;14.00;10.40;;;13.30;99.90;;;;;;5035198;28;20163;-77
2023/10/20 00:13:34;;;;;;;10.43;8.82;;;13.40;99.90;;;;;;5017627;28;20225;-77
2023/10/20 00:16:00;;;;;;;11.60;9.10;;;13.40;99.90;;;;;;5035114;28;20221;-76
2023/10/20 00:18:25;;;;;;;13.20;8.35;;;13.40;99.90;;;;;;5017251;28;20183;-77
2023/10/20 00:20:51;;;;;;;13.63;9.48;;;13.40;99.90;;;;;;5035121;28;20660;-76
2023/10/20 00:23:17;;;;;;;11.93;8.30;;;13.50;99.90;;;;;;5034967;28;20180;-77
2023/10/20 00:25:43;;;;;;;13.35;8.77;;;13.50;99.90;;;;;;5034848;28;20343;-77
2023/10/20 00:28:09;;;;;;;13.57;8.70;;;13.50;99.90;;;;;;5034914;28;20719;-76
2023/10/20 00:30:37;;;;;;;11.60;8.80;;;13.50;99.90;;;;;;5034703;28;20569;-76
2023/10/20 00:33:03;;;;;;;12.80;8.45;;;13.50;99.90;;;;;;5035000;28;20564;-76
2023/10/20 00:35:29;;;;;;;13.15;9.25;;;13.60;99.90;;;;;;5017084;28;20182;-76
2023/10/20 00:37:56;;;;;;;9.93;8.32;;;13.60;99.90;;;;;;5034846;28;20167;-76
2023/10/20 00:40:22;;;;;;;10.50;8.65;;;13.60;99.90;;;;;;5034607;28;20187;-76
2023/10/20 00:42:49;;;;;;;9.93;8.57;;;13.60;99.90;;;;;;5034965;28;20221;-77
2023/10/20 00:45:15;;;;;;;12.63;9.02;;;13.60;99.90;;;;;;5034233;28;20198;-76
2023/10/20 00:47:41;;;;;;;14.45;8.98;;;13.60;99.90;;;;;;5034642;28;20630;-76
2023/10/20 00:50:11;;;;;;;10.85;7.60;;;13.60;99.90;;;;;;5034436;28;20214;-76
2023/10/20 00:52:37;;;;;;;12.27;8.90;;;13.60;99.90;;;;;;5034371;28;20274;-76
2023/10/20 00:55:08;;;;;;;9.77;8.23;;;13.60;99.90;;;;;;5016543;28;20190;-76
2023/10/20 00:57:38;;;;;;;10.85;8.45;;;13.60;99.90;;;;;;5016535;28;20171;-76
2023/10/20 01:00:05;;;;;;;9.95;8.52;;;13.60;99.90;;;;;;5034012;28;20187;-76
2023/10/20 01:02:32;;;;;;;11.10;9.68;;;13.70;99.90;;;;;;5034408;28;20171;-76
2023/10/20 01:04:58;;;;;;;14.40;9.30;;;13.60;99.90;;;;;;5034092;28;20254;-76
2023/10/20 01:07:27;;;;;;;11.38;9.23;;;13.70;99.90;;;;;;5034227;28;20210;-75
2023/10/20 01:09:58;;;;;;;12.18;9.68;;;13.70;99.90;;;;;;5016230;28;20669;-75
2023/10/20 01:12:24;;;;;;;13.30;9.95;;;13.70;99.90;;;;;;5034118;28;20195;-75
2023/10/20 01:14:50;;;;;;;11.55;9.25;;;13.70;99.90;;;;;;5033965;28;20175;-76
2023/10/20 01:17:16;;;;;;;12.77;10.38;;;13.70;99.90;;;;;;5034226;28;20586;-76
2023/10/20 01:19:42;;;;;;;13.95;9.73;;;13.70;99.90;;;;;;5033855;28;20736;-76
2023/10/20 01:22:08;;;;;;;15.48;10.70;;;13.60;99.90;;;;;;5034062;28;20174;-76
2023/10/20 01:24:34;;;;;;;14.45;10.93;;;13.70;99.90;;;;;;5033891;28;20209;-76
2023/10/20 01:26:59;;;;;;;13.05;10.85;;;13.60;99.90;;;;;;5033903;28;20167;-76
2023/10/20 01:29:25;;;;;;;12.77;10.65;;;13.60;99.90;;;;;;5015661;28;20203;-76
2023/10/20 01:31:51;;;;;;;15.25;11.25;;;13.60;99.90;;;;;;5033601;28;20199;-76
2023/10/20 01:34:17;;;;;;;14.52;11.05;;;13.70;99.90;;;;;;5033727;28;20175;-76
2023/10/20 01:36:42;;;;;;;12.45;10.50;;;13.70;99.90;;;;;;5033796;28;20205;-76
2023/10/20 01:39:08;;;;;;;15.57;10.95;;;13.70;99.90;;;;;;5033574;28;20195;-75
2023/10/20 01:41:34;;;;;;;13.82;10.65;;;13.70;99.90;;;;;;5033638;28;20254;-76
2023/10/20 01:44:00;;;;;;;13.77;11.13;;;13.70;99.90;;;;;;5015813;28;20179;-76
2023/10/20 01:46:26;;;;;;;14.30;10.75;;;13.70;99.90;;;;;;5033321;28;20187;-76
2023/10/20 01:48:51;;;;;;;14.82;10.38;;;13.70;99.90;;;;;;5015746;28;20202;-76
2023/10/20 01:51:17;;;;;;;11.73;9.63;;;13.70;99.90;;;;;;5033414;28;20213;-76
2023/10/20 01:53:43;;;;;;;11.73;9.63;;;13.70;99.90;;;;;;5033698;28;20174;-76
2023/10/20 01:56:09;;;;;;;12.60;10.13;;;13.70;99.90;;;;;;5033360;28;20175;-76
2023/10/20 01:58:35;;;;;;;14.00;11.15;;;13.70;99.90;;;;;;5033221;28;20257;-76
2023/10/20 02:01:00;;;;;;;14.43;11.25;;;13.70;99.90;;;;;;5015344;28;20171;-76
2023/10/20 02:03:26;;;;;;;15.13;12.13;;;13.70;99.90;;;;;;5033414;28;20592;-76
2023/10/20 02:05:52;;;;;;;11.55;10.05;;;13.70;99.90;;;;;;5033370;28;20167;-76
2023/10/20 02:08:18;;;;;;;10.77;8.95;;;13.70;99.90;;;;;;5032724;28;20556;-76
2023/10/20 02:10:45;;;;;;;11.55;9.63;;;13.70;99.90;;;;;;5033211;28;20187;-76
2023/10/20 02:13:11;;;;;;;12.88;10.60;;;13.70;99.90;;;;;;5016264;28;20680;-76
2023/10/20 02:15:36;;;;;;;15.95;10.45;;;13.70;99.90;;;;;;5033013;28;20238;-75
2023/10/20 02:18:02;;;;;;;11.90;10.00;;;13.70;99.90;;;;;;5033313;28;20167;-76
2023/10/20 02:20:28;;;;;;;11.35;9.52;;;13.70;99.90;;;;;;5033079;28;20191;-76
2023/10/20 02:22:54;;;;;;;13.43;10.63;;;13.70;99.90;;;;;;5033468;28;20187;-76
2023/10/20 02:25:20;;;;;;;13.63;11.02;;;13.70;99.90;;;;;;5033120;28;20218;-76
2023/10/20 02:27:47;;;;;;;11.93;10.63;;;13.70;99.90;;;;;;5032988;28;20262;-76
2023/10/20 02:30:14;;;;;;;14.38;10.15;;;13.70;99.90;;;;;;5032838;28;20199;-76
2023/10/20 02:32:41;;;;;;;14.35;10.48;;;13.70;99.90;;;;;;5015527;28;20210;-77
2023/10/20 02:35:08;;;;;;;16.10;11.65;;;13.70;99.90;;;;;;5033678;28;20172;-76
2023/10/20 02:37:34;;;;;;;16.85;12.07;;;13.70;99.90;;;;;;5015975;28;20187;-77
2023/10/20 02:40:04;;;;;;;17.33;12.40;;;13.70;99.90;;;;;;5033568;28;20237;-77
2023/10/20 02:42:33;;;;;;;16.92;12.13;;;13.70;99.90;;;;;;5015905;28;20171;-77
2023/10/20 02:45:00;;;;;;;18.67;11.75;;;13.70;99.90;;;;;;5033312;28;20225;-78
2023/10/20 02:47:25;;;;;;;15.45;12.20;;;13.70;99.90;;;;;;5015917;28;20270;-77
2023/10/20 02:49:55;;;;;;;15.55;12.20;;;13.70;99.90;;;;;;5015790;28;20243;-77
2023/10/20 02:52:25;;;;;;;15.60;12.15;;;13.60;99.90;;;;;;5033357;28;20207;-77
2023/10/20 02:54:56;;;;;;;15.73;12.43;;;13.60;99.90;;;;;;5033379;28;20209;-76
2023/10/20 02:57:22;;;;;;;16.20;12.00;;;13.70;99.90;;;;;;5033132;28;20240;-77
2023/10/20 02:59:56;;;;;;;15.05;12.02;;;13.70;99.90;;;;;;5033870;28;20211;-76
2023/10/20 03:02:22;;;;;;;18.73;12.43;;;13.70;99.90;;;;;;5033926;28;20167;-76
2023/10/20 03:04:52;;;;;;;13.68;10.95;;;13.70;99.90;;;;;;5033348;28;20176;-76
2023/10/20 03:07:24;;;;;;;24.13;12.82;;;13.70;99.90;;;;;;5033844;28;20171;-76
2023/10/20 03:09:53;;;;;;;15.35;11.40;;;13.70;99.90;;;;;;5015716;28;20202;-76
2023/10/20 03:12:19;;;;;;;13.30;10.32;;;13.70;99.90;;;;;;5033530;28;20202;-76
2023/10/20 03:14:45;;;;;;;13.13;10.43;;;13.70;99.90;;;;;;5033009;28;20176;-76
2023/10/20 03:17:12;;;;;;;13.60;10.38;;;13.70;99.90;;;;;;5015702;28;20174;-76
2023/10/20 03:19:40;;;;;;;12.57;10.77;;;13.80;99.90;;;;;;5034150;28;20207;-76
2023/10/20 03:22:06;;;;;;;12.65;9.43;;;13.80;99.90;;;;;;5036932;28;20171;-76
2023/10/20 03:24:32;;;;;;;14.15;10.00;;;13.70;99.90;;;;;;5027842;28;20269;-76
2023/10/20 03:26:58;;;;;;;11.68;9.77;;;13.80;99.90;;;;;;5056742;28;20257;-75
2023/10/20 03:29:25;;;;;;;11.20;9.13;;;13.80;99.90;;;;;;5056168;28;20241;-76
2023/10/20 03:31:51;;;;;;;11.32;9.23;;;13.80;99.90;;;;;;5056138;28;20244;-75
2023/10/20 03:34:17;;;;;;;12.00;9.88;;;13.80;99.90;;;;;;5056885;28;20171;-76
2023/10/20 03:36:42;;;;;;;14.05;10.07;;;13.80;99.90;;;;;;5038575;28;20175;-76
2023/10/20 03:39:27;;;;;;;13.10;9.82;;;13.80;99.90;;;;;;5056733;28;20194;-76
2023/10/20 03:41:53;;;;;;;13.15;9.68;;;13.80;99.90;;;;;;5038553;28;20182;-76
2023/10/20 03:44:22;;;;;;;12.68;9.98;;;13.80;99.90;;;;;;5056383;28;20546;-76
2023/10/20 03:46:49;;;;;;;14.15;9.93;;;13.80;99.90;;;;;;5055972;28;20179;-76
2023/10/20 03:49:16;;;;;;;13.60;10.73;;;13.80;99.90;;;;;;5037714;28;20225;-76
2023/10/20 03:51:49;;;;;;;14.93;10.90;;;13.80;99.90;;;;;;5056194;28;20276;-76
2023/10/20 03:54:16;;;;;;;15.75;11.05;;;13.70;99.90;;;;;;5056158;28;20147;-76
2023/10/20 03:56:43;;;;;;;16.00;10.50;;;13.70;99.90;;;;;;5038014;28;20182;-76
2023/10/20 03:59:09;;;;;;;12.77;10.25;;;13.70;99.90;;;;;;5056136;28;20199;-76
2023/10/20 04:01:35;;;;;;;15.93;10.20;;;13.80;99.90;;;;;;5055766;28;20170;-76
2023/10/20 04:04:01;;;;;;;12.27;9.88;;;13.80;99.90;;;;;;5055940;28;20244;-76
2023/10/20 04:06:27;;;;;;;12.80;9.68;;;13.80;99.90;;;;;;5037952;28;20217;-76
2023/10/20 04:08:53;;;;;;;11.40;9.23;;;13.70;99.90;;;;;;5056778;28;20202;-76
2023/10/20 04:11:19;;;;;;;11.30;9.07;;;13.80;99.90;;;;;;5055776;28;20171;-78
2023/10/20 04:13:45;;;;;;;11.48;8.52;;;13.80;99.90;;;;;;5056403;28;20509;-75
2023/10/20 04:16:16;;;;;;;11.23;8.85;;;13.80;99.90;;;;;;5055650;28;20640;-75
2023/10/20 04:18:43;;;;;;;10.85;7.90;;;13.80;99.90;;;;;;5038119;28;20815;-75
2023/10/20 04:21:13;;;;;;;11.07;9.18;;;13.80;99.90;;;;;;5055737;28;20296;-75
2023/10/20 04:23:39;;;;;;;11.25;8.90;;;13.70;99.90;;;;;;5036148;28;20169;-75
2023/10/20 04:26:18;;;;;;;15.45;8.40;;;13.70;99.90;;;;;;5035955;28;20190;-75
2023/10/20 04:28:44;;;;;;;10.18;8.63;;;13.70;99.90;;;;;;5035586;28;20552;-75
2023/10/20 05:00:41;;;;;;;11.38;8.23;;;13.70;99.90;;;;;;5034406;28;20237;-75
2023/10/20 05:03:16;;;;;;;9.88;7.65;;;13.60;99.90;;;;;;5016857;28;20186;-75
2023/10/20 05:05:53;;;;;;;12.55;8.93;;;13.70;99.90;;;;;;5034629;28;20189;-75
2023/10/20 05:08:23;;;;;;;14.63;11.00;;;13.70;99.90;;;;;;5016903;28;20178;-75
2023/10/20 05:10:50;;;;;;;16.70;11.48;;;13.70;99.90;;;;;;5034806;28;20178;-75
2023/10/20 05:13:16;;;;;;;19.00;12.00;;;13.60;99.90;;;;;;5034639;28;20199;-75
2023/10/20 05:15:43;;;;;;;20.10;13.18;;;13.70;99.90;;;;;;5034367;28;20178;-75
2023/10/20 05:18:12;;;;;;;20.27;13.27;;;13.60;99.90;;;;;;5034511;28;20171;-75
2023/10/20 05:20:40;;;;;;;23.63;13.98;;;13.60;99.90;;;;;;5034356;28;20237;-75
2023/10/20 05:23:07;;;;;;;24.80;15.35;;;13.60;99.90;;;;;;5016765;28;20179;-75
2023/10/20 05:25:33;;;;;;;21.15;13.88;;;13.60;99.90;;;;;;5034110;28;20221;-75
2023/10/20 05:28:02;;;;;;;25.77;14.48;;;13.60;99.90;;;;;;5034308;28;20645;-75
2023/10/20 05:30:28;;;;;;;25.85;14.60;;;13.50;99.90;;;;;;5033925;28;20280;-75
2023/10/20 05:32:54;;;;;;;23.98;15.40;;;13.50;99.90;;;;;;5033898;28;20223;-75
2023/10/20 05:35:20;;;;;;;29.17;15.95;;;13.50;99.90;;;;;;5034470;28;20167;-75
2023/10/20 05:37:46;;;;;;;27.85;16.73;;;13.50;99.90;;;;;;5016734;28;20201;-75
2023/10/20 05:40:15;;;;;;;28.55;16.33;;;13.50;99.90;;;;;;5034260;28;20662;-75
2023/10/20 05:42:41;;;;;;;31.63;17.80;;;13.50;99.90;;;;;;5033495;28;20641;-75
2023/10/20 05:45:10;;;;;;;28.38;16.98;;;13.50;99.90;;;;;;5033991;28;20190;-74
2023/10/20 05:47:36;;;;;;;27.10;16.58;;;13.50;99.90;;;;;;5016505;28;20179;-75
2023/10/20 05:50:03;;;;;;;31.85;18.05;;;13.50;99.90;;;;;;5034484;28;20202;-76
2023/10/20 05:52:29;;;;;;;32.53;18.20;;;13.50;99.90;;;;;;5034622;28;20199;-77
2023/10/20 05:54:59;;;;;;;32.72;19.85;;;13.40;99.90;;;;;;5034547;28;20183;-77
2023/10/20 05:57:26;;;;;;;32.47;18.98;;;13.50;99.90;;;;;;5034701;28;20174;-76
2023/10/20 05:59:51;;;;;;;33.60;19.70;;;13.40;99.90;;;;;;5034198;28;20198;-76
2023/10/20 06:02:18;;;;;;;34.78;19.55;;;13.40;99.90;;;;;;5034068;28;20175;-76
2023/10/20 06:04:44;;;;;;;27.92;18.17;;;13.40;99.90;;;;;;5034162;28;20547;-76
2023/10/20 06:07:10;;;;;;;31.80;20.95;;;13.40;99.90;;;;;;5034485;28;20171;-76
2023/10/20 06:09:36;;;;;;;34.97;21.30;;;13.40;99.90;;;;;;5016639;28;20206;-77
2023/10/20 06:12:03;;;;;;;38.15;22.75;;;13.40;99.90;;;;;;5034269;28;20545;-77
2023/10/20 06:14:30;;;;;;;41.80;23.88;;;13.40;99.90;;;;;;5016024;28;20203;-76
2023/10/20 06:16:56;;;;;;;45.28;24.95;;;13.40;99.90;;;;;;5033484;28;20581;-77
2023/10/20 06:19:22;;;;;;;39.70;24.42;;;13.30;99.90;;;;;;5016503;28;20202;-77
2023/10/20 06:21:48;;;;;;;39.58;23.05;;;13.30;99.90;;;;;;5016748;28;20183;-73
2023/10/20 06:24:14;;;;;;;38.17;23.52;;;13.30;99.90;;;;;;5034057;28;20187;-73
2023/10/20 06:26:40;;;;;;;39.55;24.70;;;13.30;99.90;;;;;;5034281;28;20610;-73
2023/10/20 06:29:26;;;;;;;42.00;24.08;;;13.30;99.90;;;;;;5033817;28;20306;-73
2023/10/20 06:32:08;;;;;;;39.95;24.30;;;13.30;99.90;;;;;;5033507;28;20620;-73
2023/10/20 06:34:36;;;;;;;39.95;23.80;;;13.30;99.90;;;;;;5016089;28;20262;-73
2023/10/20 06:37:08;;;;;;;40.30;23.50;;;13.30;99.90;;;;;;5033612;28;20152;-73
2023/10/20 06:39:40;;;;;;;38.28;22.42;;;13.30;99.90;;;;;;5033569;28;20195;-73
2023/10/20 06:42:06;;;;;;;41.75;24.30;;;13.30;99.90;;;;;;5015726;28;20207;-74
2023/10/20 06:44:34;;;;;;;46.95;25.27;;;13.30;99.90;;;;;;5033560;28;20203;-73
2023/10/20 06:47:00;;;;;;;39.53;24.38;;;13.30;99.90;;;;;;5033236;28;20246;-73
2023/10/20 06:49:26;;;;;;;42.72;23.42;;;13.30;99.90;;;;;;5033422;28;20202;-73
2023/10/20 06:51:52;;;;;;;38.88;23.58;;;13.30;99.90;;;;;;5015787;28;20203;-73
2023/10/20 06:54:18;;;;;;;39.00;23.30;;;13.30;99.90;;;;;;5035706;28;20182;-73
2023/10/20 06:56:44;;;;;;;38.28;23.30;;;13.30;99.90;;;;;;5037412;28;20545;-73
2023/10/20 06:59:16;;;;;;;35.22;22.15;;;13.30;99.90;;;;;;5019329;28;20206;-73
2023/10/20 07:01:42;;;;;;;36.35;22.20;;;13.30;99.90;;;;;;5037009;28;20167;-72
2023/10/20 07:04:11;;;;;;;38.67;22.40;;;13.30;99.90;;;;;;5036467;28;20175;-73
2023/10/20 07:06:37;;;;;;;39.63;22.85;;;13.30;99.90;;;;;;5037590;28;20168;-73
2023/10/20 07:09:11;;;;;;;29.73;20.33;;;13.20;99.90;;;;;;5036910;28;20665;-72
2023/10/20 07:11:41;;;;;;;38.00;22.38;;;13.20;99.90;;;;;;5036479;28;20197;-73
2023/10/20 07:14:07;;;;;;;31.52;20.50;;;13.20;99.90;;;;;;5036580;28;20255;-73
2023/10/20 07:16:33;;;;;;;34.42;20.20;;;13.20;99.90;;;;;;5018266;28;20622;-72
2023/10/20 07:19:00;;;;;;;32.55;21.58;;;13.20;99.90;;;;;;5036314;28;20190;-73
2023/10/20 07:21:26;;;;;;;29.98;20.23;;;13.20;99.90;;;;;;5036108;28;20274;-73
2023/10/20 07:23:52;;;;;;;32.33;20.38;;;13.30;99.90;;;;;;5019152;28;20658;-73
2023/10/20 07:26:18;;;;;;;32.60;19.63;;;13.20;99.90;;;;;;5037432;28;20217;-73
2023/10/20 07:28:45;;;;;;;30.55;18.65;;;13.20;99.90;;;;;;5034600;28;20690;-73
2023/10/20 07:31:14;;;;;;;24.88;17.55;;;13.20;99.90;;;;;;5036481;28;20688;-73
2023/10/20 07:33:41;;;;;;;27.30;17.05;;;13.30;99.90;;;;;;5036866;28;20176;-73
2023/10/20 07:36:07;;;;;;;28.48;18.30;;;13.30;99.90;;;;;;5035867;28;20173;-73
2023/10/20 07:38:33;;;;;;;26.30;16.77;;;13.20;99.90;;;;;;5034433;28;20664;-73
2023/10/20 07:41:11;;;;;;;29.80;17.35;;;13.20;99.90;;;;;;5036548;28;20172;-73
2023/10/20 07:43:41;;;;;;;29.80;17.33;;;13.20;99.90;;;;;;5036829;28;20168;-73
2023/10/20 07:46:14;;;;;;;29.27;17.55;;;13.30;99.90;;;;;;5035925;28;20721;-73
2023/10/20 07:48:40;;;;;;;26.75;16.67;;;13.20;99.90;;;;;;5035780;28;20209;-74
2023/10/20 07:51:06;;;;;;;30.30;17.10;;;13.20;99.90;;;;;;5035507;28;20250;-73
2023/10/20 07:53:32;;;;;;;28.50;17.33;;;13.20;99.90;;;;;;5036000;28;20203;-73
2023/10/20 07:55:58;;;;;;;26.25;17.80;;;13.20;99.90;;;;;;5036008;28;20246;-73
2023/10/20 07:58:24;;;;;;;25.90;15.73;;;13.20;99.90;;;;;;5035444;28;20175;-73
2023/10/20 08:00:50;;;;;;;23.38;15.00;;;13.20;99.90;;;;;;5035289;28;20175;-73
2023/10/20 08:03:16;;;;;;;26.63;16.95;;;13.20;99.90;;;;;;5035382;28;20176;-74
2023/10/20 08:05:42;;;;;;;29.17;16.35;;;13.20;99.90;;;;;;5034854;28;20183;-73
2023/10/20 08:08:08;;;;;;;22.83;15.93;;;13.20;99.90;;;;;;5033981;28;20731;-73
2023/10/20 08:10:37;;;;;;;26.00;15.65;;;13.10;99.90;;;;;;5035217;28;20191;-73
2023/10/20 08:13:03;;;;;;;25.90;16.73;;;13.20;99.90;;;;;;5035403;28;20195;-73
2023/10/20 08:15:29;;;;;;;27.23;17.23;;;13.10;99.90;;;;;;5035099;28;20174;-73
2023/10/20 08:17:55;;;;;;;27.15;16.15;;;13.10;99.90;;;;;;5034054;28;20225;-73
2023/10/20 08:20:22;;;;;;;24.58;17.40;;;13.10;99.90;;;;;;5034992;28;20199;-73
2023/10/20 08:22:48;;;;;;;23.75;16.63;;;13.10;99.90;;;;;;5034992;28;20597;-74
2023/10/20 08:25:14;;;;;;;28.48;17.13;;;13.10;99.90;;;;;;5034851;28;20290;-73
2023/10/20 08:27:40;;;;;;;26.60;17.05;;;13.10;99.90;;;;;;5034807;28;20188;-74
2023/10/20 08:30:07;;;;;;;25.40;16.45;;;13.10;99.90;;;;;;5016878;28;20574;-73
2023/10/20 08:32:33;;;;;;;27.15;17.10;;;13.10;99.90;;;;;;5034426;28;20203;-73
2023/10/20 08:34:59;;;;;;;24.65;16.77;;;13.20;99.90;;;;;;5034678;28;20171;-74
2023/10/20 08:37:25;;;;;;;23.25;16.73;;;13.20;99.90;;;;;;5035015;28;20172;-74
2023/10/20 08:39:50;;;;;;;25.92;16.08;;;13.20;99.90;;;;;;5034751;28;20195;-74
2023/10/20 08:42:17;;;;;;;25.17;16.20;;;13.20;99.90;;;;;;5034693;28;20642;-73
2023/10/20 08:44:43;;;;;;;24.02;16.17;;;13.20;99.90;;;;;;5035043;28;20187;-73
2023/10/20 08:47:12;;;;;;;23.88;16.58;;;13.20;99.90;;;;;;5034235;28;20204;-73
2023/10/20 08:49:39;;;;;;;27.83;15.77;;;13.20;99.90;;;;;;5034604;28;20218;-73
2023/10/20 08:52:10;;;;;;;24.65;16.15;;;13.20;99.90;;;;;;5016518;28;20207;-73
2023/10/20 08:54:36;;;;;;;25.00;15.38;;;13.20;99.90;;;;;;5034364;28;20183;-72
2023/10/20 08:57:03;;;;;;;25.38;15.65;;;13.20;99.90;;;;;;5016607;28;20179;-73
2023/10/20 08:59:29;;;;;;;25.35;17.65;;;13.20;99.90;;;;;;5034246;28;20260;-73
2023/10/20 09:01:55;;;;;;;36.88;17.40;;;13.20;99.90;;;;;;5033880;28;20646;-73
2023/10/20 09:04:26;;;;;;;21.48;14.73;;;13.30;99.90;;;;;;5016466;28;20183;-72
2023/10/20 09:06:52;;;;;;;22.63;13.85;;;13.30;99.90;;;;;;5034178;28;20507;-72
2023/10/20 09:09:19;;;;;;;21.92;14.68;;;13.30;99.90;;;;;;5016307;28;20206;-73
2023/10/20 09:11:46;;;;;;;22.45;14.77;;;13.30;99.90;;;;;;5016174;28;20298;-73
2023/10/20 09:14:12;;;;;;;21.52;14.57;;;13.30;99.90;;;;;;5034382;28;20179;-73
2023/10/20 09:16:42;;;;;;;21.45;13.95;;;13.30;99.90;;;;;;5015926;28;20174;-73
2023/10/20 09:19:12;;;;;;;21.17;14.88;;;13.30;99.90;;;;;;5033913;28;20191;-73
2023/10/20 09:21:41;;;;;;;21.52;14.38;;;13.30;99.90;;;;;;5033782;28;20270;-73
2023/10/20 09:24:11;;;;;;;19.23;14.40;;;13.20;99.90;;;;;;5034435;28;20218;-73
2023/10/20 09:26:38;;;;;;;25.05;15.05;;;13.20;99.90;;;;;;5033758;28;20178;-73
2023/10/20 09:29:06;;;;;;;22.77;15.07;;;13.20;99.90;;;;;;5033530;28;20210;-73
2023/10/20 09:31:32;;;;;;;20.73;15.25;;;13.10;99.90;;;;;;5033368;28;20213;-73
2023/10/20 09:33:58;;;;;;;20.35;14.52;;;13.10;99.90;;;;;;5033625;28;20241;-73
2023/10/20 09:36:25;;;;;;;19.30;13.75;;;13.10;99.90;;;;;;5033916;28;20178;-73
2023/10/20 09:38:53;;;;;;;21.33;14.10;;;13.10;99.90;;;;;;5033494;28;20670;-73
2023/10/20 09:41:25;;;;;;;20.80;13.98;;;13.10;99.90;;;;;;5033787;28;20181;-73
2023/10/20 09:43:55;;;;;;;17.63;12.90;;;13.10;99.90;;;;;;5033788;28;20168;-72
2023/10/20 09:46:29;;;;;;;23.40;13.93;;;13.10;99.90;;;;;;5033187;28;20246;-73
2023/10/20 09:48:58;;;;;;;18.95;13.02;;;13.20;99.90;;;;;;5033406;28;20194;-73
2023/10/20 09:51:24;;;;;;;15.45;11.52;;;13.10;99.90;;;;;;5033507;28;20183;-73
2023/10/20 09:53:51;;;;;;;21.13;12.18;;;13.20;99.90;;;;;;5033401;28;20166;-73
2023/10/20 09:56:19;;;;;;;17.63;12.02;;;13.20;99.90;;;;;;5033598;28;20672;-73
2023/10/20 09:58:45;;;;;;;16.33;11.95;;;13.10;99.90;;;;;;5033345;28;20203;-73
2023/10/20 10:01:15;;;;;;;19.38;12.57;;;13.10;99.90;;;;;;5033634;28;20216;-73
2023/10/20 10:03:47;;;;;;;17.98;12.05;;;13.20;99.90;;;;;;5033851;28;20186;-73
2023/10/20 10:06:19;;;;;;;20.42;11.75;;;13.10;99.90;;;;;;5033291;28;20185;-73
2023/10/20 10:08:45;;;;;;;16.25;10.70;;;13.20;99.90;;;;;;5015499;28;20171;-73
2023/10/20 10:11:20;;;;;;;19.23;12.40;;;13.10;99.90;;;;;;5033312;28;20183;-73
2023/10/20 10:13:54;;;;;;;20.38;12.07;;;13.10;99.90;;;;;;5033303;28;20317;-73
2023/10/20 10:16:21;;;;;;;15.68;10.88;;;13.10;99.90;;;;;;5032989;28;20618;-73
2023/10/20 10:18:47;;;;;;;13.88;11.10;;;13.10;99.90;;;;;;5015384;28;20631;-73
2023/10/20 10:21:29;;;;;;;14.45;10.80;;;13.10;99.90;;;;;;5015384;28;20175;-73
2023/10/20 10:24:17;;;;;;;15.07;11.45;;;13.20;99.90;;;;;;5033337;28;20229;-73
2023/10/20 10:26:46;;;;;;;14.98;11.60;;;13.20;99.90;;;;;;5032998;28;20254;-73
2023/10/20 10:29:12;;;;;;;15.52;11.27;;;13.30;99.90;;;;;;5034872;28;20696;-73
2023/10/20 10:31:38;;;;;;;16.05;11.88;;;13.30;99.90;;;;;;5036635;28;20646;-73
2023/10/20 10:34:04;;;;;;;22.13;12.23;;;13.30;99.90;;;;;;5037636;28;20253;-73
2023/10/20 10:36:47;;;;;;;13.57;10.40;;;13.30;99.90;;;;;;5037443;28;20164;-73
2023/10/20 10:39:24;;;;;;;15.27;11.70;;;13.30;99.90;;;;;;5019384;28;20582;-73
2023/10/20 10:41:52;;;;;;;14.93;11.75;;;13.30;99.90;;;;;;5037225;28;20637;-73
2023/10/20 10:44:20;;;;;;;14.23;11.65;;;13.30;99.90;;;;;;5037055;28;20265;-73
2023/10/20 10:46:47;;;;;;;14.15;11.30;;;13.30;99.90;;;;;;5036611;28;20249;-72
2023/10/20 10:49:14;;;;;;;15.73;11.48;;;13.30;99.90;;;;;;5036612;28;20616;-73
2023/10/20 10:51:50;;;;;;;13.45;11.20;;;13.30;99.90;;;;;;5036634;28;20255;-73
2023/10/20 10:54:17;;;;;;;17.15;11.90;;;13.40;99.90;;;;;;5036648;28;20174;-73
2023/10/20 10:56:43;;;;;;;14.65;11.45;;;13.40;99.90;;;;;;5036573;28;20201;-73
2023/10/20 10:59:10;;;;;;;17.27;11.30;;;13.30;99.90;;;;;;5036348;28;20680;-73
2023/10/20 11:01:38;;;;;;;12.38;10.95;;;13.40;99.90;;;;;;5018498;28;20536;-73
2023/10/20 11:04:07;;;;;;;15.15;11.02;;;13.30;99.90;;;;;;5036502;28;20172;-73
2023/10/20 11:06:37;;;;;;;12.95;10.32;;;13.30;99.90;;;;;;5036446;28;20207;-73
2023/10/20 11:09:06;;;;;;;13.25;10.30;;;13.30;99.90;;;;;;5036339;28;20728;-73
2023/10/20 11:11:39;;;;;;;13.38;9.82;;;13.30;99.90;;;;;;5018501;28;20207;-73
2023/10/20 11:14:05;;;;;;;13.07;9.27;;;13.30;99.90;;;;;;5036609;28;20163;-73
2023/10/20 11:16:36;;;;;;;13.90;10.15;;;13.30;99.90;;;;;;5036120;28;20179;-73
2023/10/20 11:19:02;;;;;;;14.88;9.82;;;13.30;99.90;;;;;;5036688;28;20205;-74
2023/10/20 11:21:28;;;;;;;9.43;8.20;;;13.20;99.90;;;;;;5018312;28;20183;-73
2023/10/20 11:23:57;;;;;;;12.13;10.10;;;13.20;99.90;;;;;;5036010;28;20185;-73
2023/10/20 11:26:24;;;;;;;11.65;9.13;;;13.20;99.90;;;;;;5036021;28;20179;-73
2023/10/20 11:28:51;;;;;;;11.75;8.95;;;13.30;99.90;;;;;;5035923;28;20195;-73
2023/10/20 11:31:18;;;;;;;10.32;8.73;;;13.20;99.90;;;;;;5035713;28;20294;-72
2023/10/20 11:33:44;;;;;;;10.10;8.38;;;13.20;99.90;;;;;;5035945;28;20202;-72
2023/10/20 11:36:10;;;;;;;10.02;8.75;;;13.20;99.90;;;;;;5036071;28;20229;-72
2023/10/20 11:38:36;;;;;;;11.52;8.40;;;13.10;99.90;;;;;;5018024;28;20244;-72
2023/10/20 11:41:02;;;;;;;9.82;7.65;;;13.10;99.90;;;;;;5034486;28;20171;-72
2023/10/20 11:43:28;;;;;;;9.82;7.68;;;13.10;99.90;;;;;;5035931;28;20258;-72
2023/10/20 11:45:53;;;;;;;8.45;7.57;;;13.10;99.90;;;;;;5035963;28;20171;-72
2023/10/20 11:48:19;;;;;;;10.95;8.27;;;13.10;99.90;;;;;;5017503;28;20179;-72
2023/10/20 11:50:45;;;;;;;11.25;8.50;;;13.10;99.90;;;;;;5035539;28;20669;-72
2023/10/20 11:53:12;;;;;;;10.20;8.27;;;13.00;99.90;;;;;;5036047;28;20202;-72
2023/10/20 11:55:38;;;;;;;11.05;8.63;;;13.10;99.90;;;;;;5035770;28;20195;-72
2023/10/20 11:58:04;;;;;;;12.38;9.15;;;13.10;99.90;;;;;;5035812;28;20234;-73
2023/10/20 12:00:30;;;;;;;10.05;8.50;;;13.10;99.90;;;;;;5035385;28;20188;-72
2023/10/20 12:02:56;;;;;;;11.82;8.80;;;13.10;99.90;;;;;;5035150;28;20173;-72
2023/10/20 12:05:21;;;;;;;12.27;8.07;;;13.10;99.90;;;;;;5017557;28;20202;-72
2023/10/20 12:07:47;;;;;;;11.52;8.90;;;13.00;99.90;;;;;;5035508;28;20183;-72
2023/10/20 12:10:13;;;;;;;11.32;9.15;;;13.00;99.90;;;;;;5035115;28;20704;-72
2023/10/20 12:12:39;;;;;;;12.77;9.48;;;12.90;99.90;;;;;;5035101;28;20226;-75
2023/10/20 12:15:07;;;;;;;11.02;9.25;;;13.00;99.90;;;;;;5035118;28;20627;-72
2023/10/20 12:17:33;;;;;;;11.85;9.65;;;13.00;99.90;;;;;;5034836;28;20228;-73
2023/10/20 12:19:59;;;;;;;14.90;10.43;;;13.00;99.90;;;;;;5034869;28;20198;-72
2023/10/20 12:22:27;;;;;;;13.68;10.40;;;13.00;99.90;;;;;;5034977;28;20179;-72
2023/10/20 12:24:53;;;;;;;13.43;9.65;;;12.90;99.90;;;;;;5035476;28;20195;-72
2023/10/20 12:27:20;;;;;;;14.90;10.95;;;12.90;99.90;;;;;;5034905;28;20605;-72
2023/10/20 12:29:46;;;;;;;15.27;11.13;;;12.80;99.90;;;;;;5017259;28;20211;-72
2023/10/20 12:32:12;;;;;;;13.32;9.63;;;12.80;99.90;;;;;;5034653;28;20341;-72
2023/10/20 12:34:38;;;;;;;13.55;10.43;;;12.80;99.90;;;;;;5034710;28;20167;-72
2023/10/20 12:37:05;;;;;;;14.65;11.32;;;12.80;99.90;;;;;;5034724;28;20174;-73
2023/10/20 12:39:32;;;;;;;13.27;10.52;;;12.70;99.90;;;;;;5034582;28;20218;-72
2023/10/20 12:42:02;;;;;;;13.48;11.10;;;12.70;99.90;;;;;;5034687;28;20171;-72
2023/10/20 12:44:29;;;;;;;19.75;11.77;;;12.70;99.90;;;;;;5034571;28;20173;-72
2023/10/20 12:46:55;;;;;;;13.98;10.35;;;12.70;99.90;;;;;;5034664;28;20210;-72
2023/10/20 12:49:21;;;;;;;16.90;12.82;;;12.70;99.90;;;;;;5034650;28;20704;-72
2023/10/20 12:51:47;;;;;;;18.45;12.70;;;12.70;99.90;;;;;;5033924;28;20230;-73
2023/10/20 12:54:12;;;;;;;17.75;13.82;;;12.70;99.90;;;;;;5034418;28;20237;-73
2023/10/20 12:56:38;;;;;;;18.77;13.27;;;12.80;99.90;;;;;;5034327;28;20179;-72
2023/10/20 12:59:04;;;;;;;19.35;14.60;;;12.80;99.90;;;;;;5034300;28;20191;-72
2023/10/20 13:01:30;;;;;;;17.40;13.10;;;12.90;99.90;;;;;;5034474;28;20216;-72